createdAt,value
2018-08-04T00:00:23.935Z,99.99
2018-08-04T00:01:23.946Z,99.99
2018-08-04T00:02:23.963Z,99.99
2018-08-04T00:03:24.113Z,99.99
2018-08-04T00:04:23.981Z,99.99
2018-08-04T00:05:23.992Z,99.99
2018-08-04T00:06:23.999Z,99.99
2018-08-04T00:07:24.015Z,99.99
2018-08-04T00:08:24.170Z,99.99
2018-08-04T00:09:24.032Z,99.99
2018-08-04T00:10:24.043Z,99.99
2018-08-04T00:11:24.056Z,99.99
2018-08-04T00:12:24.070Z,99.99
2018-08-04T00:13:24.207Z,99.99
2018-08-04T00:14:24.090Z,99.99
2018-08-04T00:15:24.106Z,99.99
2018-08-04T00:16:24.108Z,99.99
2018-08-04T00:17:24.124Z,99.99
2018-08-04T00:18:24.269Z,99.99
2018-08-04T00:19:24.142Z,99.99
2018-08-04T00:20:24.154Z,99.99
2018-08-04T00:21:24.166Z,99.99
2018-08-04T00:22:24.160Z,99.99
2018-08-04T00:23:24.189Z,99.99
2018-08-04T00:24:24.204Z,99.99
2018-08-04T00:25:24.213Z,99.99
2018-08-04T00:26:24.240Z,99.99
2018-08-04T00:27:24.237Z,99.99
2018-08-04T00:28:24.246Z,99.99
2018-08-04T00:29:24.359Z,99.99
2018-08-04T00:30:24.265Z,99.99
2018-08-04T00:31:24.284Z,99.99
2018-08-04T00:32:24.293Z,99.99
2018-08-04T00:33:24.310Z,99.99
2018-08-04T00:34:24.400Z,99.99
2018-08-04T00:35:24.331Z,99.99
2018-08-04T00:36:24.315Z,99.99
2018-08-04T00:37:24.347Z,99.99
2018-08-04T00:38:24.359Z,99.99
2018-08-04T00:39:24.457Z,99.99
2018-08-04T00:40:24.382Z,99.99
2018-08-04T00:41:24.397Z,99.99
2018-08-04T00:42:24.400Z,99.99
2018-08-04T00:43:24.418Z,99.99
2018-08-04T00:44:24.538Z,99.99
2018-08-04T00:45:24.441Z,99.99
2018-08-04T00:46:24.448Z,99.99
2018-08-04T00:47:24.457Z,99.99
2018-08-04T00:48:24.467Z,99.99
2018-08-04T00:49:24.619Z,99.99
2018-08-04T00:50:24.497Z,99.99
2018-08-04T00:51:24.504Z,99.99
2018-08-04T00:52:24.512Z,99.99
2018-08-04T00:53:24.508Z,99.99
2018-08-04T00:54:24.789Z,99.99
2018-08-04T00:55:24.547Z,99.99
2018-08-04T00:56:24.563Z,99.99
2018-08-04T00:57:24.580Z,99.99
2018-08-04T00:58:24.589Z,99.99
2018-08-04T00:59:24.745Z,99.99
2018-08-04T01:00:24.617Z,99.99
2018-08-04T01:01:24.624Z,99.99
2018-08-04T01:02:24.634Z,99.99
2018-08-04T01:03:24.639Z,99.99
2018-08-04T01:04:24.807Z,99.99
2018-08-04T01:05:24.669Z,99.99
2018-08-04T01:06:24.660Z,99.99
2018-08-04T01:07:24.670Z,99.99
2018-08-04T01:08:24.706Z,99.99
2018-08-04T01:09:24.937Z,99.99
2018-08-04T01:10:24.708Z,99.99
2018-08-04T01:11:24.732Z,99.99
2018-08-04T01:12:24.743Z,99.99
2018-08-04T01:13:24.756Z,99.99
2018-08-04T01:14:24.898Z,99.99
2018-08-04T01:15:24.788Z,99.99
2018-08-04T01:16:24.788Z,99.99
2018-08-04T01:17:24.802Z,99.99
2018-08-04T01:18:24.814Z,99.99
2018-08-04T01:19:25.076Z,99.99
2018-08-04T01:20:24.843Z,99.99
2018-08-04T01:21:24.847Z,99.99
2018-08-04T01:22:24.863Z,99.99
2018-08-04T01:23:24.873Z,99.99
2018-08-04T01:24:25.035Z,99.99
2018-08-04T01:25:24.888Z,99.99
2018-08-04T01:26:24.943Z,99.99
2018-08-04T01:27:24.920Z,99.99
2018-08-04T01:28:24.935Z,99.99
2018-08-04T01:29:25.193Z,99.99
2018-08-04T01:30:24.956Z,99.99
2018-08-04T01:31:24.969Z,99.99
2018-08-04T01:32:24.980Z,99.99
2018-08-04T01:33:24.969Z,99.99
2018-08-04T01:34:25.136Z,99.99
2018-08-04T01:35:25.016Z,99.99
2018-08-04T01:36:25.016Z,99.99
2018-08-04T01:37:25.018Z,99.99
2018-08-04T01:38:25.045Z,99.99
2018-08-04T01:39:25.058Z,99.99
2018-08-04T01:40:25.066Z,99.99
2018-08-04T01:41:25.081Z,99.99
2018-08-04T01:42:25.074Z,99.99
2018-08-04T01:43:25.097Z,99.99
2018-08-04T01:44:25.279Z,99.99
2018-08-04T01:45:25.128Z,99.99
2018-08-04T01:46:25.140Z,99.99
2018-08-04T01:47:25.145Z,99.99
2018-08-04T01:48:25.152Z,99.99
2018-08-04T01:49:25.157Z,99.99
2018-08-04T01:50:25.327Z,99.99
2018-08-04T01:51:25.194Z,99.99
2018-08-04T01:52:25.207Z,99.99
2018-08-04T01:53:25.220Z,99.99
2018-08-04T01:54:25.226Z,99.99
2018-08-04T01:55:25.390Z,99.99
2018-08-04T01:56:25.236Z,99.99
2018-08-04T01:57:25.264Z,99.99
2018-08-04T01:58:25.272Z,99.99
2018-08-04T01:59:25.284Z,99.99
2018-08-04T02:00:25.435Z,99.99
2018-08-04T02:01:25.315Z,99.99
2018-08-04T02:02:25.316Z,99.99
2018-08-04T02:03:25.329Z,99.99
2018-08-04T02:04:25.341Z,99.99
2018-08-04T02:05:25.491Z,99.99
2018-08-04T02:06:25.360Z,99.99
2018-08-04T02:07:25.371Z,99.99
2018-08-04T02:08:25.390Z,99.99
2018-08-04T02:09:25.408Z,99.99
2018-08-04T02:10:25.564Z,99.99
2018-08-04T02:11:25.425Z,99.99
2018-08-04T02:12:25.430Z,99.99
2018-08-04T02:13:25.445Z,99.99
2018-08-04T02:14:25.463Z,99.99
2018-08-04T02:15:25.612Z,99.99
2018-08-04T02:16:25.494Z,99.99
2018-08-04T02:17:25.469Z,99.99
2018-08-04T02:18:25.501Z,99.99
2018-08-04T02:19:25.533Z,99.99
2018-08-04T02:20:25.782Z,99.99
2018-08-04T02:21:25.537Z,99.99
2018-08-04T02:22:25.552Z,99.99
2018-08-04T02:23:25.558Z,99.99
2018-08-04T02:24:25.575Z,99.99
2018-08-04T02:25:25.834Z,99.99
2018-08-04T02:26:25.581Z,99.99
2018-08-04T02:27:25.601Z,99.99
2018-08-04T02:28:25.615Z,99.99
2018-08-04T02:29:25.609Z,99.99
2018-08-04T02:30:25.794Z,99.99
2018-08-04T02:31:25.653Z,99.99
2018-08-04T02:32:25.659Z,99.99
2018-08-04T02:33:25.674Z,99.99
2018-08-04T02:34:25.684Z,99.99
2018-08-04T02:35:25.849Z,99.99
2018-08-04T02:36:25.712Z,99.99
2018-08-04T02:37:25.719Z,99.99
2018-08-04T02:38:25.730Z,99.99
2018-08-04T02:39:25.755Z,99.99
2018-08-04T02:40:26.007Z,99.99
2018-08-04T02:41:25.767Z,99.99
2018-08-04T02:42:25.770Z,99.99
2018-08-04T02:43:25.787Z,99.99
2018-08-04T02:44:25.804Z,99.99
2018-08-04T02:45:25.937Z,99.99
2018-08-04T02:46:25.813Z,99.99
2018-08-04T02:47:25.832Z,99.99
2018-08-04T02:48:25.829Z,99.99
2018-08-04T02:49:25.859Z,99.99
2018-08-04T02:50:26.025Z,99.99
2018-08-04T02:51:25.864Z,99.99
2018-08-04T02:52:25.893Z,99.99
2018-08-04T02:53:25.901Z,99.99
2018-08-04T02:54:25.912Z,99.99
2018-08-04T02:55:26.075Z,99.99
2018-08-04T02:56:25.941Z,99.99
2018-08-04T02:57:25.950Z,99.99
2018-08-04T02:58:25.943Z,99.99
2018-08-04T02:59:25.971Z,99.99
2018-08-04T03:00:26.136Z,99.99
2018-08-04T03:01:25.993Z,99.99
2018-08-04T03:02:26.002Z,99.99
2018-08-04T03:03:26.016Z,99.99
2018-08-04T03:04:26.023Z,99.99
2018-08-04T03:05:26.186Z,99.99
2018-08-04T03:06:26.047Z,99.99
2018-08-04T03:07:26.067Z,99.99
2018-08-04T03:08:26.126Z,99.99
2018-08-04T03:09:26.082Z,99.99
2018-08-04T03:10:26.252Z,99.99
2018-08-04T03:11:26.085Z,99.99
2018-08-04T03:12:26.118Z,99.99
2018-08-04T03:13:26.132Z,99.99
2018-08-04T03:14:26.147Z,99.99
2018-08-04T03:15:26.151Z,99.99
2018-08-04T03:16:26.420Z,99.99
2018-08-04T03:17:26.179Z,99.99
2018-08-04T03:18:26.188Z,99.99
2018-08-04T03:19:26.202Z,99.99
2018-08-04T03:20:26.199Z,99.99
2018-08-04T03:21:26.380Z,99.99
2018-08-04T03:22:26.241Z,99.99
2018-08-04T03:23:26.242Z,99.99
2018-08-04T03:24:26.255Z,99.99
2018-08-04T03:25:26.276Z,99.99
2018-08-04T03:26:26.430Z,99.99
2018-08-04T03:27:26.273Z,99.99
2018-08-04T03:28:26.305Z,99.99
2018-08-04T03:29:26.314Z,99.99
2018-08-04T03:30:26.309Z,99.99
2018-08-04T03:31:26.489Z,99.99
2018-08-04T03:32:26.344Z,99.99
2018-08-04T03:33:26.360Z,99.99
2018-08-04T03:34:26.370Z,99.99
2018-08-04T03:35:26.384Z,99.99
2018-08-04T03:36:26.531Z,99.99
2018-08-04T03:37:26.406Z,99.99
2018-08-04T03:38:26.420Z,99.99
2018-08-04T03:39:26.409Z,99.99
2018-08-04T03:40:26.437Z,99.99
2018-08-04T03:41:26.598Z,99.99
2018-08-04T03:42:26.464Z,99.99
2018-08-04T03:43:26.474Z,99.99
2018-08-04T03:44:26.492Z,99.99
2018-08-04T03:45:26.501Z,99.99
2018-08-04T03:46:26.664Z,99.99
2018-08-04T03:47:26.526Z,99.99
2018-08-04T03:48:26.535Z,99.99
2018-08-04T03:49:26.548Z,99.99
2018-08-04T03:50:26.558Z,99.99
2018-08-04T03:51:26.697Z,99.99
2018-08-04T03:52:26.585Z,99.99
2018-08-04T03:53:26.585Z,99.99
2018-08-04T03:54:26.578Z,99.99
2018-08-04T03:55:26.594Z,99.99
2018-08-04T03:56:26.869Z,99.99
2018-08-04T03:57:26.639Z,99.99
2018-08-04T03:58:26.628Z,99.99
2018-08-04T03:59:26.656Z,99.99
2018-08-04T04:00:26.671Z,99.99
2018-08-04T04:01:26.833Z,99.99
2018-08-04T04:02:26.701Z,99.99
2018-08-04T04:03:26.703Z,99.99
2018-08-04T04:04:26.712Z,99.99
2018-08-04T04:05:26.732Z,99.99
2018-08-04T04:06:26.989Z,99.99
2018-08-04T04:07:26.753Z,99.99
2018-08-04T04:08:26.760Z,99.99
2018-08-04T04:09:26.772Z,99.99
2018-08-04T04:10:26.785Z,99.99
2018-08-04T04:11:27.050Z,99.99
2018-08-04T04:12:26.812Z,99.99
2018-08-04T04:13:26.819Z,99.99
2018-08-04T04:14:26.839Z,99.99
2018-08-04T04:15:26.842Z,99.99
2018-08-04T04:16:27.008Z,99.99
2018-08-04T04:17:26.869Z,99.99
2018-08-04T04:18:26.882Z,99.99
2018-08-04T04:19:26.879Z,99.99
2018-08-04T04:20:26.903Z,99.99
2018-08-04T04:21:27.052Z,99.99
2018-08-04T04:22:26.923Z,99.99
2018-08-04T04:23:26.934Z,99.99
2018-08-04T04:24:26.945Z,99.99
2018-08-04T04:25:26.961Z,99.99
2018-08-04T04:26:27.217Z,99.99
2018-08-04T04:27:26.979Z,99.99
2018-08-04T04:28:26.996Z,99.99
2018-08-04T04:29:27.006Z,99.99
2018-08-04T04:30:27.020Z,99.99
2018-08-04T04:31:27.031Z,99.99
2018-08-04T04:32:27.171Z,99.99
2018-08-04T04:33:27.054Z,99.99
2018-08-04T04:34:27.068Z,99.99
2018-08-04T04:35:27.076Z,99.99
2018-08-04T04:36:27.067Z,99.99
2018-08-04T04:37:27.093Z,99.99
2018-08-04T04:38:27.357Z,99.99
2018-08-04T04:39:27.119Z,99.99
2018-08-04T04:40:27.128Z,99.99
2018-08-04T04:41:27.145Z,99.99
2018-08-04T04:42:27.153Z,99.99
2018-08-04T04:43:27.149Z,99.99
2018-08-04T04:44:27.324Z,99.99
2018-08-04T04:45:27.190Z,99.99
2018-08-04T04:46:27.202Z,99.99
2018-08-04T04:47:27.212Z,99.99
2018-08-04T04:48:27.258Z,99.99
2018-08-04T04:49:27.385Z,99.99
2018-08-04T04:50:27.256Z,99.99
2018-08-04T04:51:27.257Z,99.99
2018-08-04T04:52:27.266Z,99.99
2018-08-04T04:53:27.278Z,99.99
2018-08-04T04:54:27.445Z,99.99
2018-08-04T04:55:27.373Z,99.99
2018-08-04T04:56:27.319Z,99.99
2018-08-04T04:57:27.333Z,99.99
2018-08-04T04:58:27.335Z,99.99
2018-08-04T04:59:27.500Z,99.99
2018-08-04T05:00:27.367Z,99.99
2018-08-04T05:01:27.374Z,99.99
2018-08-04T05:02:27.381Z,99.99
2018-08-04T05:03:27.381Z,99.99
2018-08-04T05:04:27.561Z,99.99
2018-08-04T05:05:27.425Z,99.99
2018-08-04T05:06:27.429Z,99.99
2018-08-04T05:07:27.438Z,99.99
2018-08-04T05:08:27.457Z,99.99
2018-08-04T05:09:27.612Z,99.99
2018-08-04T05:10:27.474Z,99.99
2018-08-04T05:11:27.486Z,99.99
2018-08-04T05:12:27.481Z,99.99
2018-08-04T05:13:27.512Z,99.99
2018-08-04T05:14:27.681Z,99.99
2018-08-04T05:15:27.531Z,99.99
2018-08-04T05:16:27.544Z,99.99
2018-08-04T05:17:27.558Z,99.99
2018-08-04T05:18:27.575Z,99.99
2018-08-04T05:19:27.733Z,99.99
2018-08-04T05:20:27.573Z,99.99
2018-08-04T05:21:27.669Z,99.99
2018-08-04T05:22:27.615Z,99.99
2018-08-04T05:23:27.630Z,99.99
2018-08-04T05:24:27.787Z,99.99
2018-08-04T05:25:27.634Z,99.99
2018-08-04T05:26:27.664Z,99.99
2018-08-04T05:27:27.673Z,99.99
2018-08-04T05:28:27.680Z,99.99
2018-08-04T05:29:27.846Z,99.99
2018-08-04T05:30:27.710Z,99.99
2018-08-04T05:31:27.715Z,99.99
2018-08-04T05:32:27.736Z,99.99
2018-08-04T05:33:27.738Z,99.99
2018-08-04T05:34:27.904Z,99.99
2018-08-04T05:35:27.767Z,99.99
2018-08-04T05:36:27.771Z,99.99
2018-08-04T05:37:27.852Z,99.99
2018-08-04T05:38:27.782Z,99.99
2018-08-04T05:39:27.964Z,99.99
2018-08-04T05:40:27.804Z,99.99
2018-08-04T05:41:27.830Z,99.99
2018-08-04T05:42:27.849Z,99.99
2018-08-04T05:43:27.858Z,99.99
2018-08-04T05:44:28.121Z,99.99
2018-08-04T05:45:27.880Z,99.99
2018-08-04T05:46:27.893Z,99.99
2018-08-04T05:47:27.909Z,99.99
2018-08-04T05:48:27.925Z,99.99
2018-08-04T05:49:28.179Z,99.99
2018-08-04T05:50:27.940Z,99.99
2018-08-04T05:51:27.931Z,99.99
2018-08-04T05:52:27.941Z,99.99
2018-08-04T05:53:27.975Z,99.99
2018-08-04T05:54:27.985Z,99.99
2018-08-04T05:55:28.124Z,99.99
2018-08-04T05:56:28.002Z,99.99
2018-08-04T05:57:28.018Z,99.99
2018-08-04T05:58:28.015Z,99.99
2018-08-04T05:59:28.040Z,99.99
2018-08-04T06:00:28.198Z,99.99
2018-08-04T06:01:28.066Z,99.99
2018-08-04T06:02:28.082Z,99.99
2018-08-04T06:03:28.095Z,99.99
2018-08-04T06:04:28.095Z,99.99
2018-08-04T06:05:28.105Z,99.99
2018-08-04T06:06:28.289Z,99.99
2018-08-04T06:07:28.138Z,99.99
2018-08-04T06:08:28.143Z,99.99
2018-08-04T06:09:28.156Z,99.99
2018-08-04T06:10:28.167Z,99.99
2018-08-04T06:11:28.428Z,99.99
2018-08-04T06:12:28.196Z,99.99
2018-08-04T06:13:28.196Z,99.99
2018-08-04T06:14:28.217Z,99.99
2018-08-04T06:15:28.221Z,99.99
2018-08-04T06:16:28.390Z,99.99
2018-08-04T06:17:28.252Z,99.99
2018-08-04T06:18:28.243Z,99.99
2018-08-04T06:19:28.273Z,99.99
2018-08-04T06:20:28.264Z,99.77
2018-08-04T06:21:28.546Z,99.99
2018-08-04T06:22:28.305Z,99.99
2018-08-04T06:23:28.318Z,99.99
2018-08-04T06:24:28.324Z,99.99
2018-08-04T06:25:28.345Z,99.99
2018-08-04T06:26:28.601Z,99.99
2018-08-04T06:27:28.362Z,99.99
2018-08-04T06:28:28.379Z,99.99
2018-08-04T06:29:28.388Z,99.99
2018-08-04T06:30:28.407Z,99.99
2018-08-04T06:31:28.559Z,99.99
2018-08-04T06:32:28.398Z,99.99
2018-08-04T06:33:28.455Z,99.99
2018-08-04T06:34:28.440Z,99.99
2018-08-04T06:35:28.441Z,99.99
2018-08-04T06:36:28.618Z,99.99
2018-08-04T06:37:28.479Z,99.99
2018-08-04T06:38:28.487Z,99.99
2018-08-04T06:39:28.503Z,99.99
2018-08-04T06:40:28.517Z,99.99
2018-08-04T06:41:28.681Z,99.99
2018-08-04T06:42:28.543Z,99.99
2018-08-04T06:43:28.538Z,99.99
2018-08-04T06:44:28.559Z,99.99
2018-08-04T06:45:28.580Z,99.99
2018-08-04T06:46:28.840Z,99.99
2018-08-04T06:47:28.602Z,99.99
2018-08-04T06:48:28.612Z,99.99
2018-08-04T06:49:28.618Z,99.99
2018-08-04T06:50:28.634Z,99.99
2018-08-04T06:51:28.798Z,99.99
2018-08-04T06:52:28.653Z,99.99
2018-08-04T06:53:28.671Z,99.99
2018-08-04T06:54:28.680Z,99.99
2018-08-04T06:55:28.692Z,99.99
2018-08-04T06:56:28.855Z,99.99
2018-08-04T06:57:28.714Z,99.99
2018-08-04T06:58:28.729Z,99.99
2018-08-04T06:59:28.729Z,99.99
2018-08-04T07:00:28.750Z,99.99
2018-08-04T07:01:28.928Z,99.99
2018-08-04T07:02:28.774Z,99.99
2018-08-04T07:03:28.797Z,99.99
2018-08-04T07:04:28.799Z,99.99
2018-08-04T07:05:28.811Z,99.99
2018-08-04T07:06:28.976Z,99.99
2018-08-04T07:07:28.840Z,99.99
2018-08-04T07:08:28.851Z,99.99
2018-08-04T07:09:28.850Z,99.99
2018-08-04T07:10:28.876Z,99.99
2018-08-04T07:11:29.034Z,99.99
2018-08-04T07:12:28.877Z,99.99
2018-08-04T07:13:28.910Z,99.99
2018-08-04T07:14:28.916Z,99.82
2018-08-04T07:15:28.934Z,99.99
2018-08-04T07:16:29.102Z,99.99
2018-08-04T07:17:28.939Z,99.99
2018-08-04T07:18:28.965Z,99.99
2018-08-04T07:19:28.983Z,99.99
2018-08-04T07:20:29.007Z,99.99
2018-08-04T07:21:29.162Z,99.99
2018-08-04T07:22:29.018Z,99.99
2018-08-04T07:23:29.035Z,99.99
2018-08-04T07:24:29.045Z,99.99
2018-08-04T07:25:29.052Z,99.99
2018-08-04T07:26:29.061Z,99.99
2018-08-04T07:27:29.226Z,99.99
2018-08-04T07:28:29.088Z,99.99
2018-08-04T07:29:29.097Z,99.99
2018-08-04T07:30:29.113Z,99.99
2018-08-04T07:31:29.128Z,99.99
2018-08-04T07:32:29.139Z,99.99
2018-08-04T07:33:29.402Z,99.99
2018-08-04T07:34:29.166Z,99.99
2018-08-04T07:35:29.174Z,99.99
2018-08-04T07:36:29.182Z,99.99
2018-08-04T07:37:29.197Z,99.99
2018-08-04T07:38:29.360Z,99.99
2018-08-04T07:39:29.219Z,99.99
2018-08-04T07:40:29.340Z,99.99
2018-08-04T07:41:29.248Z,99.99
2018-08-04T07:42:29.258Z,99.99
2018-08-04T07:43:29.403Z,99.99
2018-08-04T07:44:29.279Z,99.99
2018-08-04T07:45:29.281Z,99.99
2018-08-04T07:46:29.308Z,99.99
2018-08-04T07:47:29.338Z,99.99
2018-08-04T07:48:29.460Z,99.99
2018-08-04T07:49:29.343Z,99.99
2018-08-04T07:50:29.335Z,99.68
2018-08-04T07:51:29.352Z,99.87
2018-08-04T07:52:29.370Z,99.87
2018-08-04T07:53:29.543Z,99.99
2018-08-04T07:54:29.383Z,99.99
2018-08-04T07:55:29.424Z,99.99
2018-08-04T07:56:29.413Z,99.01
2018-08-04T07:57:29.428Z,98.33
2018-08-04T07:58:29.605Z,96.80
2018-08-04T07:59:29.487Z,97.61
2018-08-04T08:00:29.480Z,97.38
2018-08-04T08:01:29.495Z,98.33
2018-08-04T08:02:29.506Z,99.48
2018-08-04T08:03:29.661Z,99.99
2018-08-04T08:04:29.528Z,99.68
2018-08-04T08:05:29.542Z,99.99
2018-08-04T08:06:29.555Z,99.99
2018-08-04T08:07:29.566Z,99.96
2018-08-04T08:08:29.711Z,99.87
2018-08-04T08:09:29.589Z,99.77
2018-08-04T08:10:29.639Z,99.87
2018-08-04T08:11:29.615Z,99.68
2018-08-04T08:12:29.627Z,99.68
2018-08-04T08:13:29.766Z,99.58
2018-08-04T08:14:29.648Z,99.39
2018-08-04T08:15:29.665Z,99.96
2018-08-04T08:16:29.673Z,99.99
2018-08-04T08:17:29.688Z,99.99
2018-08-04T08:18:29.832Z,99.99
2018-08-04T08:19:29.773Z,99.99
2018-08-04T08:20:29.723Z,99.99
2018-08-04T08:21:29.744Z,99.99
2018-08-04T08:22:29.758Z,99.87
2018-08-04T08:23:30.017Z,99.99
2018-08-04T08:24:29.768Z,99.99
2018-08-04T08:25:29.785Z,99.87
2018-08-04T08:26:29.780Z,98.91
2018-08-04T08:27:29.805Z,98.81
2018-08-04T08:28:29.975Z,98.72
2018-08-04T08:29:29.833Z,99.48
2018-08-04T08:30:29.843Z,99.96
2018-08-04T08:31:29.914Z,99.99
2018-08-04T08:32:29.875Z,99.99
2018-08-04T08:33:30.037Z,99.99
2018-08-04T08:34:29.901Z,99.77
2018-08-04T08:35:29.903Z,99.01
2018-08-04T08:36:29.925Z,99.01
2018-08-04T08:37:29.933Z,98.14
2018-08-04T08:38:30.125Z,98.67
2018-08-04T08:39:29.952Z,96.66
2018-08-04T08:40:29.981Z,96.84
2018-08-04T08:41:29.993Z,97.18
2018-08-04T08:42:29.998Z,98.57
2018-08-04T08:43:30.136Z,97.61
2018-08-04T08:44:30.005Z,94.93
2018-08-04T08:45:30.036Z,94.55
2018-08-04T08:46:30.050Z,96.27
2018-08-04T08:47:30.052Z,95.31
2018-08-04T08:48:30.046Z,95.12
2018-08-04T08:49:30.233Z,94.74
2018-08-04T08:50:30.095Z,95.70
2018-08-04T08:51:30.106Z,95.70
2018-08-04T08:52:30.102Z,95.98
2018-08-04T08:53:30.323Z,96.56
2018-08-04T08:54:30.297Z,97.14
2018-08-04T08:55:30.150Z,96.94
2018-08-04T08:56:30.170Z,98.00
2018-08-04T08:57:30.173Z,96.94
2018-08-04T08:58:30.186Z,97.61
2018-08-04T08:59:30.354Z,96.94
2018-08-04T09:00:30.196Z,97.04
2018-08-04T09:01:30.385Z,95.89
2018-08-04T09:02:30.237Z,97.42
2018-08-04T09:03:30.261Z,96.94
2018-08-04T09:04:30.414Z,96.47
2018-08-04T09:05:30.281Z,97.23
2018-08-04T09:06:30.297Z,97.71
2018-08-04T09:07:30.300Z,95.70
2018-08-04T09:08:30.323Z,95.70
2018-08-04T09:09:30.469Z,96.84
2018-08-04T09:10:30.335Z,97.04
2018-08-04T09:11:30.345Z,99.82
2018-08-04T09:12:30.352Z,99.91
2018-08-04T09:13:30.369Z,97.33
2018-08-04T09:14:30.384Z,97.23
2018-08-04T09:15:30.389Z,98.76
2018-08-04T09:16:30.405Z,99.15
2018-08-04T09:17:30.416Z,99.99
2018-08-04T09:18:30.426Z,99.99
2018-08-04T09:19:30.667Z,99.24
2018-08-04T09:20:30.448Z,99.99
2018-08-04T09:21:30.463Z,99.99
2018-08-04T09:22:30.481Z,99.99
2018-08-04T09:23:30.489Z,99.99
2018-08-04T09:24:30.646Z,99.99
2018-08-04T09:25:30.516Z,99.99
2018-08-04T09:26:30.505Z,99.99
2018-08-04T09:27:30.539Z,99.99
2018-08-04T09:28:30.548Z,98.67
2018-08-04T09:29:30.708Z,97.61
2018-08-04T09:30:30.566Z,98.00
2018-08-04T09:31:30.591Z,97.04
2018-08-04T09:32:30.593Z,97.23
2018-08-04T09:33:30.604Z,98.57
2018-08-04T09:34:30.767Z,98.00
2018-08-04T09:35:30.631Z,98.47
2018-08-04T09:36:30.638Z,98.47
2018-08-04T09:37:30.649Z,99.82
2018-08-04T09:38:30.669Z,99.82
2018-08-04T09:39:30.926Z,99.82
2018-08-04T09:40:30.689Z,98.43
2018-08-04T09:41:30.701Z,98.91
2018-08-04T09:42:30.699Z,98.91
2018-08-04T09:43:30.729Z,98.81
2018-08-04T09:44:30.871Z,96.99
2018-08-04T09:45:30.727Z,96.61
2018-08-04T09:46:30.755Z,95.84
2018-08-04T09:47:30.765Z,97.18
2018-08-04T09:48:30.763Z,98.91
2018-08-04T09:49:31.044Z,99.77
2018-08-04T09:50:30.804Z,99.99
2018-08-04T09:51:30.812Z,99.99
2018-08-04T09:52:30.853Z,99.99
2018-08-04T09:53:30.847Z,99.99
2018-08-04T09:54:30.987Z,99.99
2018-08-04T09:55:30.862Z,99.99
2018-08-04T09:56:30.874Z,99.99
2018-08-04T09:57:30.925Z,99.99
2018-08-04T09:58:30.897Z,99.99
2018-08-04T09:59:31.121Z,99.99
2018-08-04T10:00:30.942Z,99.38
2018-08-04T10:01:30.941Z,99.87
2018-08-04T10:02:30.946Z,98.71
2018-08-04T10:03:30.960Z,99.99
2018-08-04T10:04:31.122Z,99.99
2018-08-04T10:05:31.006Z,99.99
2018-08-04T10:06:30.990Z,99.99
2018-08-04T10:07:31.005Z,99.99
2018-08-04T10:08:31.015Z,99.99
2018-08-04T10:09:31.027Z,99.99
2018-08-04T10:10:31.197Z,99.99
2018-08-04T10:11:31.053Z,99.99
2018-08-04T10:12:31.059Z,99.99
2018-08-04T10:13:31.082Z,99.99
2018-08-04T10:14:31.084Z,99.99
2018-08-04T10:15:31.100Z,99.96
2018-08-04T10:16:31.263Z,99.77
2018-08-04T10:17:31.124Z,99.99
2018-08-04T10:18:31.135Z,99.99
2018-08-04T10:19:31.130Z,99.99
2018-08-04T10:20:31.141Z,99.99
2018-08-04T10:21:31.320Z,99.99
2018-08-04T10:22:31.180Z,99.99
2018-08-04T10:23:31.197Z,99.99
2018-08-04T10:24:31.205Z,99.99
2018-08-04T10:25:31.220Z,99.99
2018-08-04T10:26:31.466Z,99.99
2018-08-04T10:27:31.227Z,99.99
2018-08-04T10:28:31.250Z,99.99
2018-08-04T10:29:31.263Z,99.99
2018-08-04T10:30:31.282Z,99.99
2018-08-04T10:31:31.441Z,99.05
2018-08-04T10:32:31.314Z,98.19
2018-08-04T10:33:31.317Z,97.23
2018-08-04T10:34:31.328Z,99.99
2018-08-04T10:35:31.339Z,99.99
2018-08-04T10:36:31.613Z,99.99
2018-08-04T10:37:31.372Z,99.99
2018-08-04T10:38:31.384Z,99.99
2018-08-04T10:39:31.379Z,99.99
2018-08-04T10:40:31.397Z,99.63
2018-08-04T10:41:31.567Z,99.99
2018-08-04T10:42:31.425Z,99.01
2018-08-04T10:43:31.443Z,99.99
2018-08-04T10:44:31.456Z,99.99
2018-08-04T10:45:31.464Z,99.99
2018-08-04T10:46:31.628Z,99.99
2018-08-04T10:47:31.494Z,99.99
2018-08-04T10:48:31.505Z,95.89
2018-08-04T10:49:31.530Z,95.84
2018-08-04T10:50:31.535Z,95.51
2018-08-04T10:51:31.695Z,96.66
2018-08-04T10:52:31.552Z,95.60
2018-08-04T10:53:31.569Z,93.21
2018-08-04T10:54:31.580Z,96.18
2018-08-04T10:55:31.595Z,85.63
2018-08-04T10:56:31.854Z,87.26
2018-08-04T10:57:31.619Z,92.05
2018-08-04T10:58:31.631Z,91.19
2018-08-04T10:59:31.643Z,91.19
2018-08-04T11:00:31.647Z,95.17
2018-08-04T11:01:31.929Z,93.82
2018-08-04T11:02:31.690Z,96.61
2018-08-04T11:03:31.707Z,92.77
2018-08-04T11:04:31.721Z,91.33
2018-08-04T11:05:31.733Z,89.51
2018-08-04T11:06:31.897Z,90.56
2018-08-04T11:07:31.738Z,89.79
2018-08-04T11:08:31.772Z,90.75
2018-08-04T11:09:31.786Z,88.74
2018-08-04T11:10:31.798Z,91.42
2018-08-04T11:11:31.958Z,88.26
2018-08-04T11:12:31.840Z,88.35
2018-08-04T11:13:31.843Z,87.11
2018-08-04T11:14:31.855Z,87.01
2018-08-04T11:15:31.868Z,89.12
2018-08-04T11:16:32.128Z,89.22
2018-08-04T11:17:31.897Z,87.01
2018-08-04T11:18:31.932Z,88.35
2018-08-04T11:19:31.926Z,87.98
2018-08-04T11:20:31.919Z,87.59
2018-08-04T11:21:31.950Z,82.60
2018-08-04T11:22:32.216Z,87.73
2018-08-04T11:23:31.980Z,88.59
2018-08-04T11:24:31.996Z,84.47
2018-08-04T11:25:32.007Z,82.01
2018-08-04T11:26:32.022Z,83.64
2018-08-04T11:27:32.042Z,81.72
2018-08-04T11:28:32.184Z,80.86
2018-08-04T11:29:32.069Z,78.08
2018-08-04T11:30:32.069Z,75.23
2018-08-04T11:31:32.104Z,76.19
2018-08-04T11:32:32.111Z,73.79
2018-08-04T11:33:32.280Z,68.41
2018-08-04T11:34:32.144Z,67.35
2018-08-04T11:35:32.161Z,64.85
2018-08-04T11:36:32.242Z,68.31
2018-08-04T11:37:32.187Z,68.70
2018-08-04T11:38:32.457Z,69.18
2018-08-04T11:39:32.221Z,66.20
2018-08-04T11:40:32.241Z,67.07
2018-08-04T11:41:32.258Z,67.10
2018-08-04T11:42:32.247Z,60.27
2018-08-04T11:43:32.433Z,62.19
2018-08-04T11:44:32.300Z,63.35
2018-08-04T11:45:32.329Z,63.15
2018-08-04T11:46:32.318Z,62.87
2018-08-04T11:47:32.349Z,64.69
2018-08-04T11:48:32.624Z,67.29
2018-08-04T11:49:32.363Z,61.65
2018-08-04T11:50:32.401Z,61.65
2018-08-04T11:51:32.419Z,60.11
2018-08-04T11:52:32.430Z,60.39
2018-08-04T11:53:32.700Z,58.22
2018-08-04T11:54:32.461Z,55.04
2018-08-04T11:55:32.477Z,54.65
2018-08-04T11:56:32.493Z,54.17
2018-08-04T11:57:32.510Z,55.23
2018-08-04T11:58:32.632Z,54.00
2018-08-04T11:59:32.523Z,54.20
2018-08-04T12:00:32.543Z,52.27
2018-08-04T12:01:32.579Z,51.14
2018-08-04T12:02:32.593Z,49.22
2018-08-04T12:03:32.756Z,48.93
2018-08-04T12:04:32.629Z,47.19
2018-08-04T12:05:32.751Z,47.97
2018-08-04T12:06:32.658Z,46.71
2018-08-04T12:07:32.689Z,45.46
2018-08-04T12:08:32.850Z,46.42
2018-08-04T12:09:32.697Z,46.62
2018-08-04T12:10:32.715Z,45.94
2018-08-04T12:11:32.744Z,47.97
2018-08-04T12:12:32.765Z,47.70
2018-08-04T12:13:32.934Z,47.80
2018-08-04T12:14:32.811Z,45.20
2018-08-04T12:15:32.824Z,43.96
2018-08-04T12:16:32.844Z,43.29
2018-08-04T12:17:32.833Z,43.00
2018-08-04T12:18:33.028Z,41.94
2018-08-04T12:19:32.890Z,40.97
2018-08-04T12:20:32.907Z,39.43
2018-08-04T12:21:32.923Z,40.59
2018-08-04T12:22:32.948Z,40.39
2018-08-04T12:23:33.093Z,40.39
2018-08-04T12:24:32.963Z,39.82
2018-08-04T12:25:33.056Z,39.53
2018-08-04T12:26:33.017Z,39.72
2018-08-04T12:27:33.036Z,39.62
2018-08-04T12:28:33.052Z,40.42
2018-08-04T12:29:33.225Z,40.42
2018-08-04T12:30:33.090Z,39.06
2018-08-04T12:31:33.181Z,40.80
2018-08-04T12:32:33.130Z,39.76
2018-08-04T12:33:33.149Z,39.16
2018-08-04T12:34:33.413Z,38.20
2018-08-04T12:35:33.169Z,40.05
2018-08-04T12:36:33.180Z,38.39
2018-08-04T12:37:33.276Z,37.54
2018-08-04T12:38:33.238Z,36.67
2018-08-04T12:39:33.419Z,37.54
2018-08-04T12:40:33.277Z,37.06
2018-08-04T12:41:33.296Z,35.34
2018-08-04T12:42:33.316Z,35.24
2018-08-04T12:43:33.324Z,35.34
2018-08-04T12:44:33.591Z,34.95
2018-08-04T12:45:33.414Z,35.05
2018-08-04T12:46:33.371Z,36.30
2018-08-04T12:47:33.409Z,35.55
2018-08-04T12:48:33.425Z,33.80
2018-08-04T12:49:33.461Z,36.11
2018-08-04T12:50:33.470Z,36.30
2018-08-04T12:51:33.496Z,35.06
2018-08-04T12:52:33.514Z,35.06